sensor_id;sensor_type;location;lat;lon;timestamp;P1;durP1;ratioP1;P2;durP2;ratioP2
58784;SDS011;44557;51.862;19.378;2023-07-16T00:00:12;8.40;;;4.90;;
58784;SDS011;44557;51.862;19.378;2023-07-16T00:02:34;7.70;;;4.60;;
58784;SDS011;44557;51.862;19.378;2023-07-16T00:04:36;8.10;;;5.00;;
58784;SDS011;44557;51.862;19.378;2023-07-16T00:06:39;7.70;;;4.60;;
58784;SDS011;44557;51.862;19.378;2023-07-16T00:08:40;10.30;;;5.60;;
58784;SDS011;44557;51.862;19.378;2023-07-16T00:10:42;8.30;;;5.00;;
58784;SDS011;44557;51.862;19.378;2023-07-16T00:12:44;7.60;;;5.40;;
58784;SDS011;44557;51.862;19.378;2023-07-16T00:14:45;7.00;;;4.90;;
58784;SDS011;44557;51.862;19.378;2023-07-16T00:16:47;6.90;;;4.70;;
58784;SDS011;44557;51.862;19.378;2023-07-16T00:18:48;7.00;;;5.00;;
58784;SDS011;44557;51.862;19.378;2023-07-16T00:20:50;7.40;;;4.70;;
58784;SDS011;44557;51.862;19.378;2023-07-16T00:22:52;7.20;;;5.30;;
58784;SDS011;44557;51.862;19.378;2023-07-16T00:24:55;6.70;;;5.10;;
58784;SDS011;44557;51.862;19.378;2023-07-16T00:26:57;7.70;;;5.30;;
58784;SDS011;44557;51.862;19.378;2023-07-16T00:28:58;7.80;;;4.90;;
58784;SDS011;44557;51.862;19.378;2023-07-16T00:31:00;11.60;;;5.20;;
58784;SDS011;44557;51.862;19.378;2023-07-16T00:33:02;6.80;;;4.90;;
58784;SDS011;44557;51.862;19.378;2023-07-16T00:35:04;8.40;;;5.20;;
58784;SDS011;44557;51.862;19.378;2023-07-16T00:37:07;8.30;;;5.20;;
58784;SDS011;44557;51.862;19.378;2023-07-16T00:39:08;8.80;;;5.40;;
58784;SDS011;44557;51.862;19.378;2023-07-16T00:41:12;7.50;;;5.20;;
58784;SDS011;44557;51.862;19.378;2023-07-16T00:43:15;6.50;;;4.70;;
58784;SDS011;44557;51.862;19.378;2023-07-16T00:45:17;7.50;;;5.40;;
58784;SDS011;44557;51.862;19.378;2023-07-16T00:47:19;7.70;;;5.20;;
58784;SDS011;44557;51.862;19.378;2023-07-16T00:49:21;6.90;;;4.90;;
58784;SDS011;44557;51.862;19.378;2023-07-16T00:51:24;8.30;;;5.10;;
58784;SDS011;44557;51.862;19.378;2023-07-16T00:53:27;8.10;;;5.60;;
58784;SDS011;44557;51.862;19.378;2023-07-16T00:55:28;9.90;;;4.90;;
58784;SDS011;44557;51.862;19.378;2023-07-16T00:57:31;9.10;;;5.00;;
58784;SDS011;44557;51.862;19.378;2023-07-16T00:59:34;7.60;;;4.60;;
58784;SDS011;44557;51.862;19.378;2023-07-16T01:01:36;7.60;;;5.10;;
58784;SDS011;44557;51.862;19.378;2023-07-16T01:03:40;7.00;;;5.10;;
58784;SDS011;44557;51.862;19.378;2023-07-16T01:07:53;7.10;;;5.10;;
58784;SDS011;44557;51.862;19.378;2023-07-16T01:09:59;8.90;;;5.10;;
58784;SDS011;44557;51.862;19.378;2023-07-16T01:12:00;8.20;;;5.30;;
58784;SDS011;44557;51.862;19.378;2023-07-16T01:14:03;8.20;;;5.00;;
58784;SDS011;44557;51.862;19.378;2023-07-16T01:16:06;9.40;;;5.10;;
58784;SDS011;44557;51.862;19.378;2023-07-16T01:18:22;7.80;;;5.40;;
58784;SDS011;44557;51.862;19.378;2023-07-16T01:20:24;7.40;;;5.60;;
58784;SDS011;44557;51.862;19.378;2023-07-16T01:22:32;6.60;;;5.00;;
58784;SDS011;44557;51.862;19.378;2023-07-16T01:27:12;7.10;;;5.20;;
58784;SDS011;44557;51.862;19.378;2023-07-16T01:29:44;8.60;;;5.00;;
58784;SDS011;44557;51.862;19.378;2023-07-16T01:31:51;8.80;;;5.50;;
58784;SDS011;44557;51.862;19.378;2023-07-16T01:33:56;7.00;;;5.40;;
58784;SDS011;44557;51.862;19.378;2023-07-16T01:35:58;7.50;;;5.30;;
58784;SDS011;44557;51.862;19.378;2023-07-16T01:38:01;9.30;;;5.60;;
58784;SDS011;44557;51.862;19.378;2023-07-16T01:40:03;8.00;;;4.90;;
58784;SDS011;44557;51.862;19.378;2023-07-16T01:42:06;7.70;;;5.20;;
58784;SDS011;44557;51.862;19.378;2023-07-16T01:44:08;7.30;;;5.70;;
58784;SDS011;44557;51.862;19.378;2023-07-16T01:46:09;9.10;;;5.60;;
58784;SDS011;44557;51.862;19.378;2023-07-16T01:50:25;7.00;;;5.60;;
58784;SDS011;44557;51.862;19.378;2023-07-16T01:52:26;7.20;;;4.90;;
58784;SDS011;44557;51.862;19.378;2023-07-16T01:54:28;7.80;;;5.20;;
58784;SDS011;44557;51.862;19.378;2023-07-16T01:56:30;8.50;;;5.00;;
58784;SDS011;44557;51.862;19.378;2023-07-16T01:58:32;8.40;;;5.50;;
58784;SDS011;44557;51.862;19.378;2023-07-16T02:00:34;6.70;;;4.90;;
58784;SDS011;44557;51.862;19.378;2023-07-16T02:02:35;7.90;;;5.40;;
58784;SDS011;44557;51.862;19.378;2023-07-16T02:04:37;6.50;;;5.30;;
58784;SDS011;44557;51.862;19.378;2023-07-16T02:06:38;9.30;;;5.50;;
58784;SDS011;44557;51.862;19.378;2023-07-16T02:08:40;7.70;;;5.80;;
58784;SDS011;44557;51.862;19.378;2023-07-16T02:10:42;7.10;;;5.70;;
58784;SDS011;44557;51.862;19.378;2023-07-16T02:12:43;9.80;;;6.30;;
58784;SDS011;44557;51.862;19.378;2023-07-16T02:14:45;8.20;;;5.80;;
58784;SDS011;44557;51.862;19.378;2023-07-16T02:16:46;8.60;;;5.70;;
58784;SDS011;44557;51.862;19.378;2023-07-16T02:18:48;8.70;;;6.00;;
58784;SDS011;44557;51.862;19.378;2023-07-16T02:20:50;7.30;;;5.80;;
58784;SDS011;44557;51.862;19.378;2023-07-16T02:22:51;7.60;;;5.40;;
58784;SDS011;44557;51.862;19.378;2023-07-16T02:24:53;9.50;;;5.70;;
58784;SDS011;44557;51.862;19.378;2023-07-16T02:26:54;8.10;;;5.60;;
58784;SDS011;44557;51.862;19.378;2023-07-16T02:28:56;6.60;;;5.50;;
58784;SDS011;44557;51.862;19.378;2023-07-16T02:30:58;8.50;;;6.20;;
58784;SDS011;44557;51.862;19.378;2023-07-16T02:33:00;8.30;;;5.80;;
58784;SDS011;44557;51.862;19.378;2023-07-16T02:35:02;8.20;;;6.10;;
58784;SDS011;44557;51.862;19.378;2023-07-16T02:37:04;7.20;;;5.50;;
58784;SDS011;44557;51.862;19.378;2023-07-16T02:39:06;8.10;;;5.80;;
58784;SDS011;44557;51.862;19.378;2023-07-16T02:41:07;8.00;;;5.60;;
58784;SDS011;44557;51.862;19.378;2023-07-16T02:43:09;7.50;;;5.90;;
58784;SDS011;44557;51.862;19.378;2023-07-16T02:45:11;7.80;;;5.60;;
58784;SDS011;44557;51.862;19.378;2023-07-16T02:47:13;8.70;;;6.10;;
58784;SDS011;44557;51.862;19.378;2023-07-16T02:49:14;8.70;;;5.50;;
58784;SDS011;44557;51.862;19.378;2023-07-16T02:51:16;8.60;;;5.70;;
58784;SDS011;44557;51.862;19.378;2023-07-16T02:53:17;10.20;;;6.00;;
58784;SDS011;44557;51.862;19.378;2023-07-16T02:55:19;9.00;;;5.50;;
58784;SDS011;44557;51.862;19.378;2023-07-16T02:57:21;8.60;;;5.80;;
58784;SDS011;44557;51.862;19.378;2023-07-16T02:59:24;10.00;;;6.40;;
58784;SDS011;44557;51.862;19.378;2023-07-16T03:01:25;7.10;;;5.40;;
58784;SDS011;44557;51.862;19.378;2023-07-16T03:03:27;7.00;;;5.50;;
58784;SDS011;44557;51.862;19.378;2023-07-16T03:05:29;7.70;;;5.60;;
58784;SDS011;44557;51.862;19.378;2023-07-16T03:07:31;8.70;;;5.70;;
58784;SDS011;44557;51.862;19.378;2023-07-16T03:09:32;8.70;;;6.20;;
58784;SDS011;44557;51.862;19.378;2023-07-16T03:11:34;7.90;;;6.10;;
58784;SDS011;44557;51.862;19.378;2023-07-16T03:13:35;8.90;;;5.80;;
58784;SDS011;44557;51.862;19.378;2023-07-16T03:15:37;10.00;;;6.00;;
58784;SDS011;44557;51.862;19.378;2023-07-16T03:17:38;12.10;;;5.90;;
58784;SDS011;44557;51.862;19.378;2023-07-16T03:19:40;8.50;;;6.40;;
58784;SDS011;44557;51.862;19.378;2023-07-16T03:21:42;11.50;;;6.50;;
58784;SDS011;44557;51.862;19.378;2023-07-16T03:23:43;8.60;;;6.30;;
58784;SDS011;44557;51.862;19.378;2023-07-16T03:25:45;8.50;;;6.20;;
58784;SDS011;44557;51.862;19.378;2023-07-16T03:27:46;9.20;;;6.30;;
58784;SDS011;44557;51.862;19.378;2023-07-16T03:29:48;11.80;;;6.20;;
58784;SDS011;44557;51.862;19.378;2023-07-16T03:31:50;8.00;;;6.30;;
58784;SDS011;44557;51.862;19.378;2023-07-16T03:33:51;10.30;;;6.20;;
58784;SDS011;44557;51.862;19.378;2023-07-16T03:35:53;9.00;;;6.10;;
58784;SDS011;44557;51.862;19.378;2023-07-16T03:37:55;11.70;;;6.20;;
58784;SDS011;44557;51.862;19.378;2023-07-16T03:40:01;12.40;;;6.10;;
58784;SDS011;44557;51.862;19.378;2023-07-16T03:42:14;8.20;;;5.60;;
58784;SDS011;44557;51.862;19.378;2023-07-16T03:44:15;11.10;;;6.90;;
58784;SDS011;44557;51.862;19.378;2023-07-16T03:46:17;8.30;;;6.10;;
58784;SDS011;44557;51.862;19.378;2023-07-16T03:48:19;9.60;;;6.00;;
58784;SDS011;44557;51.862;19.378;2023-07-16T03:50:21;11.40;;;6.30;;
58784;SDS011;44557;51.862;19.378;2023-07-16T03:52:22;9.30;;;6.30;;
58784;SDS011;44557;51.862;19.378;2023-07-16T03:54:25;9.50;;;6.60;;
58784;SDS011;44557;51.862;19.378;2023-07-16T03:56:27;10.80;;;6.30;;
58784;SDS011;44557;51.862;19.378;2023-07-16T03:58:29;9.40;;;6.20;;
58784;SDS011;44557;51.862;19.378;2023-07-16T04:00:30;9.30;;;6.60;;
58784;SDS011;44557;51.862;19.378;2023-07-16T04:02:33;12.10;;;6.40;;
58784;SDS011;44557;51.862;19.378;2023-07-16T04:04:34;9.50;;;5.70;;
58784;SDS011;44557;51.862;19.378;2023-07-16T04:06:36;9.70;;;6.40;;
58784;SDS011;44557;51.862;19.378;2023-07-16T04:08:38;9.70;;;5.70;;
58784;SDS011;44557;51.862;19.378;2023-07-16T04:10:40;8.50;;;5.70;;
58784;SDS011;44557;51.862;19.378;2023-07-16T04:12:41;9.30;;;5.80;;
58784;SDS011;44557;51.862;19.378;2023-07-16T04:14:43;8.30;;;5.90;;
58784;SDS011;44557;51.862;19.378;2023-07-16T04:16:44;9.30;;;6.40;;
58784;SDS011;44557;51.862;19.378;2023-07-16T04:18:46;8.30;;;6.10;;
58784;SDS011;44557;51.862;19.378;2023-07-16T04:20:48;11.40;;;6.10;;
58784;SDS011;44557;51.862;19.378;2023-07-16T04:22:49;7.90;;;5.60;;
58784;SDS011;44557;51.862;19.378;2023-07-16T04:24:51;8.60;;;5.90;;
58784;SDS011;44557;51.862;19.378;2023-07-16T04:26:53;7.50;;;5.60;;
58784;SDS011;44557;51.862;19.378;2023-07-16T04:28:55;8.40;;;5.50;;
58784;SDS011;44557;51.862;19.378;2023-07-16T04:30:57;10.60;;;5.80;;
58784;SDS011;44557;51.862;19.378;2023-07-16T04:32:58;10.80;;;5.90;;
58784;SDS011;44557;51.862;19.378;2023-07-16T04:35:00;8.50;;;6.00;;
58784;SDS011;44557;51.862;19.378;2023-07-16T04:37:02;8.70;;;6.00;;
58784;SDS011;44557;51.862;19.378;2023-07-16T04:39:04;8.80;;;5.70;;
58784;SDS011;44557;51.862;19.378;2023-07-16T04:41:06;9.00;;;5.90;;
58784;SDS011;44557;51.862;19.378;2023-07-16T04:43:08;8.90;;;5.80;;
58784;SDS011;44557;51.862;19.378;2023-07-16T04:45:09;8.90;;;5.60;;
58784;SDS011;44557;51.862;19.378;2023-07-16T04:47:11;9.40;;;6.30;;
58784;SDS011;44557;51.862;19.378;2023-07-16T04:49:13;9.60;;;5.90;;
58784;SDS011;44557;51.862;19.378;2023-07-16T04:51:14;10.00;;;5.70;;
58784;SDS011;44557;51.862;19.378;2023-07-16T04:53:16;9.10;;;6.00;;
58784;SDS011;44557;51.862;19.378;2023-07-16T04:55:19;10.50;;;5.70;;
58784;SDS011;44557;51.862;19.378;2023-07-16T04:57:21;10.70;;;6.30;;
58784;SDS011;44557;51.862;19.378;2023-07-16T04:59:23;10.40;;;6.10;;
58784;SDS011;44557;51.862;19.378;2023-07-16T05:01:24;7.00;;;5.80;;
58784;SDS011;44557;51.862;19.378;2023-07-16T05:03:28;8.60;;;6.00;;
58784;SDS011;44557;51.862;19.378;2023-07-16T05:05:30;8.60;;;5.20;;
58784;SDS011;44557;51.862;19.378;2023-07-16T05:07:31;9.10;;;6.00;;
58784;SDS011;44557;51.862;19.378;2023-07-16T05:09:33;11.20;;;6.20;;
58784;SDS011;44557;51.862;19.378;2023-07-16T05:11:35;8.20;;;5.90;;
58784;SDS011;44557;51.862;19.378;2023-07-16T05:13:38;7.70;;;6.50;;
58784;SDS011;44557;51.862;19.378;2023-07-16T05:15:40;10.20;;;5.70;;
58784;SDS011;44557;51.862;19.378;2023-07-16T05:17:42;7.80;;;5.70;;
58784;SDS011;44557;51.862;19.378;2023-07-16T05:19:44;8.30;;;5.80;;
58784;SDS011;44557;51.862;19.378;2023-07-16T05:21:46;7.90;;;6.10;;
58784;SDS011;44557;51.862;19.378;2023-07-16T05:23:47;8.40;;;6.00;;
58784;SDS011;44557;51.862;19.378;2023-07-16T05:25:49;8.50;;;5.70;;
58784;SDS011;44557;51.862;19.378;2023-07-16T05:27:51;11.20;;;6.40;;
58784;SDS011;44557;51.862;19.378;2023-07-16T05:29:53;8.90;;;5.70;;
58784;SDS011;44557;51.862;19.378;2023-07-16T05:31:54;9.00;;;5.80;;
58784;SDS011;44557;51.862;19.378;2023-07-16T05:33:56;7.20;;;5.60;;
58784;SDS011;44557;51.862;19.378;2023-07-16T05:35:58;7.50;;;5.40;;
58784;SDS011;44557;51.862;19.378;2023-07-16T05:37:59;8.30;;;5.60;;
58784;SDS011;44557;51.862;19.378;2023-07-16T05:40:01;9.60;;;6.10;;
58784;SDS011;44557;51.862;19.378;2023-07-16T05:42:04;8.50;;;5.80;;
58784;SDS011;44557;51.862;19.378;2023-07-16T05:44:06;8.40;;;6.10;;
58784;SDS011;44557;51.862;19.378;2023-07-16T05:46:08;7.60;;;5.80;;
58784;SDS011;44557;51.862;19.378;2023-07-16T05:48:10;8.50;;;6.20;;
58784;SDS011;44557;51.862;19.378;2023-07-16T05:50:11;10.00;;;5.70;;
58784;SDS011;44557;51.862;19.378;2023-07-16T05:52:13;10.50;;;5.90;;
58784;SDS011;44557;51.862;19.378;2023-07-16T05:54:14;9.30;;;5.90;;
58784;SDS011;44557;51.862;19.378;2023-07-16T05:56:16;9.80;;;5.60;;
58784;SDS011;44557;51.862;19.378;2023-07-16T05:58:18;10.10;;;5.60;;
58784;SDS011;44557;51.862;19.378;2023-07-16T06:00:19;8.70;;;5.90;;
58784;SDS011;44557;51.862;19.378;2023-07-16T06:02:21;8.50;;;6.10;;
58784;SDS011;44557;51.862;19.378;2023-07-16T06:04:23;8.40;;;6.00;;
58784;SDS011;44557;51.862;19.378;2023-07-16T06:06:27;7.70;;;5.80;;
58784;SDS011;44557;51.862;19.378;2023-07-16T06:08:29;8.60;;;6.40;;
58784;SDS011;44557;51.862;19.378;2023-07-16T06:10:33;7.50;;;5.90;;
58784;SDS011;44557;51.862;19.378;2023-07-16T06:12:35;9.50;;;5.40;;
58784;SDS011;44557;51.862;19.378;2023-07-16T06:14:37;9.50;;;6.10;;
58784;SDS011;44557;51.862;19.378;2023-07-16T06:16:39;12.60;;;7.30;;
58784;SDS011;44557;51.862;19.378;2023-07-16T06:18:40;9.70;;;6.70;;
58784;SDS011;44557;51.862;19.378;2023-07-16T06:20:45;9.80;;;7.30;;
58784;SDS011;44557;51.862;19.378;2023-07-16T06:22:47;8.90;;;6.20;;
58784;SDS011;44557;51.862;19.378;2023-07-16T06:24:48;9.90;;;6.90;;
58784;SDS011;44557;51.862;19.378;2023-07-16T06:26:51;9.40;;;6.80;;
58784;SDS011;44557;51.862;19.378;2023-07-16T06:28:52;10.60;;;6.50;;
58784;SDS011;44557;51.862;19.378;2023-07-16T06:30:54;7.50;;;6.70;;
58784;SDS011;44557;51.862;19.378;2023-07-16T06:32:56;9.30;;;6.80;;
58784;SDS011;44557;51.862;19.378;2023-07-16T06:34:57;9.90;;;7.10;;
58784;SDS011;44557;51.862;19.378;2023-07-16T06:36:59;8.20;;;6.90;;
58784;SDS011;44557;51.862;19.378;2023-07-16T06:39:00;8.40;;;6.40;;
58784;SDS011;44557;51.862;19.378;2023-07-16T06:41:02;8.70;;;6.60;;
58784;SDS011;44557;51.862;19.378;2023-07-16T06:43:04;11.40;;;6.50;;
58784;SDS011;44557;51.862;19.378;2023-07-16T06:45:06;10.30;;;6.70;;
58784;SDS011;44557;51.862;19.378;2023-07-16T06:47:08;10.40;;;6.70;;
58784;SDS011;44557;51.862;19.378;2023-07-16T06:49:10;8.60;;;6.60;;
58784;SDS011;44557;51.862;19.378;2023-07-16T06:51:11;9.70;;;6.50;;
58784;SDS011;44557;51.862;19.378;2023-07-16T06:53:13;7.80;;;6.00;;
58784;SDS011;44557;51.862;19.378;2023-07-16T06:55:15;7.90;;;5.80;;
58784;SDS011;44557;51.862;19.378;2023-07-16T06:57:16;8.70;;;5.80;;
58784;SDS011;44557;51.862;19.378;2023-07-16T06:59:18;10.20;;;6.20;;
58784;SDS011;44557;51.862;19.378;2023-07-16T07:01:20;9.40;;;5.90;;
58784;SDS011;44557;51.862;19.378;2023-07-16T07:03:22;7.90;;;5.90;;
58784;SDS011;44557;51.862;19.378;2023-07-16T07:05:24;8.10;;;6.00;;
58784;SDS011;44557;51.862;19.378;2023-07-16T07:07:25;8.30;;;5.70;;
58784;SDS011;44557;51.862;19.378;2023-07-16T07:09:27;8.60;;;6.20;;
58784;SDS011;44557;51.862;19.378;2023-07-16T07:11:29;9.00;;;5.70;;
58784;SDS011;44557;51.862;19.378;2023-07-16T07:13:30;8.30;;;6.40;;
58784;SDS011;44557;51.862;19.378;2023-07-16T07:15:32;9.40;;;5.80;;
58784;SDS011;44557;51.862;19.378;2023-07-16T07:17:33;9.80;;;6.10;;
58784;SDS011;44557;51.862;19.378;2023-07-16T07:19:36;7.80;;;6.00;;
58784;SDS011;44557;51.862;19.378;2023-07-16T07:21:38;8.80;;;6.40;;
58784;SDS011;44557;51.862;19.378;2023-07-16T07:23:39;6.70;;;6.00;;
58784;SDS011;44557;51.862;19.378;2023-07-16T07:25:41;9.90;;;6.30;;
58784;SDS011;44557;51.862;19.378;2023-07-16T07:27:42;8.80;;;6.30;;
58784;SDS011;44557;51.862;19.378;2023-07-16T07:29:44;7.50;;;6.20;;
58784;SDS011;44557;51.862;19.378;2023-07-16T07:31:47;8.40;;;6.00;;
58784;SDS011;44557;51.862;19.378;2023-07-16T07:33:49;8.00;;;5.90;;
58784;SDS011;44557;51.862;19.378;2023-07-16T07:35:53;8.60;;;6.10;;
58784;SDS011;44557;51.862;19.378;2023-07-16T07:37:56;10.90;;;6.70;;
58784;SDS011;44557;51.862;19.378;2023-07-16T07:39:58;10.90;;;6.60;;
58784;SDS011;44557;51.862;19.378;2023-07-16T07:42:01;7.90;;;6.40;;
58784;SDS011;44557;51.862;19.378;2023-07-16T07:44:02;9.50;;;6.10;;
58784;SDS011;44557;51.862;19.378;2023-07-16T07:46:04;9.70;;;6.10;;
58784;SDS011;44557;51.862;19.378;2023-07-16T07:48:07;7.10;;;6.00;;
58784;SDS011;44557;51.862;19.378;2023-07-16T07:50:09;9.80;;;6.50;;
58784;SDS011;44557;51.862;19.378;2023-07-16T07:52:13;9.60;;;6.00;;
58784;SDS011;44557;51.862;19.378;2023-07-16T07:54:15;7.10;;;5.90;;
58784;SDS011;44557;51.862;19.378;2023-07-16T07:56:17;7.10;;;6.00;;
58784;SDS011;44557;51.862;19.378;2023-07-16T07:58:19;8.60;;;6.30;;
58784;SDS011;44557;51.862;19.378;2023-07-16T08:00:21;10.80;;;5.90;;
58784;SDS011;44557;51.862;19.378;2023-07-16T08:02:23;8.40;;;5.60;;
58784;SDS011;44557;51.862;19.378;2023-07-16T08:04:28;7.80;;;4.90;;
58784;SDS011;44557;51.862;19.378;2023-07-16T08:06:35;6.80;;;4.70;;
58784;SDS011;44557;51.862;19.378;2023-07-16T08:08:37;7.90;;;5.10;;
58784;SDS011;44557;51.862;19.378;2023-07-16T08:10:38;6.10;;;4.70;;
58784;SDS011;44557;51.862;19.378;2023-07-16T08:12:42;7.50;;;4.50;;
58784;SDS011;44557;51.862;19.378;2023-07-16T08:14:44;9.60;;;4.30;;
58784;SDS011;44557;51.862;19.378;2023-07-16T08:16:45;8.40;;;4.60;;
58784;SDS011;44557;51.862;19.378;2023-07-16T08:18:47;6.40;;;4.10;;
58784;SDS011;44557;51.862;19.378;2023-07-16T08:20:49;9.80;;;6.70;;
58784;SDS011;44557;51.862;19.378;2023-07-16T08:22:50;6.90;;;4.20;;
58784;SDS011;44557;51.862;19.378;2023-07-16T08:24:52;8.80;;;5.70;;
58784;SDS011;44557;51.862;19.378;2023-07-16T08:26:54;6.50;;;4.30;;
58784;SDS011;44557;51.862;19.378;2023-07-16T08:28:55;7.30;;;4.60;;
58784;SDS011;44557;51.862;19.378;2023-07-16T08:30:57;7.20;;;4.00;;
58784;SDS011;44557;51.862;19.378;2023-07-16T08:32:59;5.30;;;3.70;;
58784;SDS011;44557;51.862;19.378;2023-07-16T08:35:00;8.70;;;4.40;;
58784;SDS011;44557;51.862;19.378;2023-07-16T08:37:02;9.50;;;5.90;;
58784;SDS011;44557;51.862;19.378;2023-07-16T08:39:04;7.30;;;5.00;;
58784;SDS011;44557;51.862;19.378;2023-07-16T08:41:06;6.90;;;4.10;;
58784;SDS011;44557;51.862;19.378;2023-07-16T08:43:11;6.80;;;4.20;;
58784;SDS011;44557;51.862;19.378;2023-07-16T08:45:14;6.10;;;3.70;;
58784;SDS011;44557;51.862;19.378;2023-07-16T08:47:17;6.40;;;3.70;;
58784;SDS011;44557;51.862;19.378;2023-07-16T08:49:19;6.30;;;3.60;;
58784;SDS011;44557;51.862;19.378;2023-07-16T08:51:26;5.50;;;3.50;;
58784;SDS011;44557;51.862;19.378;2023-07-16T08:53:29;5.40;;;3.20;;
58784;SDS011;44557;51.862;19.378;2023-07-16T08:55:31;5.50;;;3.30;;
58784;SDS011;44557;51.862;19.378;2023-07-16T08:57:34;5.60;;;3.90;;
58784;SDS011;44557;51.862;19.378;2023-07-16T08:59:36;5.60;;;3.50;;
58784;SDS011;44557;51.862;19.378;2023-07-16T09:01:38;9.10;;;5.00;;
58784;SDS011;44557;51.862;19.378;2023-07-16T09:03:40;5.90;;;3.30;;
58784;SDS011;44557;51.862;19.378;2023-07-16T09:05:42;5.70;;;3.70;;
58784;SDS011;44557;51.862;19.378;2023-07-16T09:07:45;6.70;;;3.60;;
58784;SDS011;44557;51.862;19.378;2023-07-16T09:09:57;4.70;;;3.40;;
58784;SDS011;44557;51.862;19.378;2023-07-16T09:12:01;7.30;;;4.90;;
58784;SDS011;44557;51.862;19.378;2023-07-16T09:14:04;6.20;;;3.80;;
58784;SDS011;44557;51.862;19.378;2023-07-16T09:16:05;6.70;;;4.10;;
58784;SDS011;44557;51.862;19.378;2023-07-16T09:18:07;6.40;;;3.60;;
58784;SDS011;44557;51.862;19.378;2023-07-16T09:20:11;5.00;;;3.40;;
58784;SDS011;44557;51.862;19.378;2023-07-16T09:22:19;5.50;;;2.90;;
58784;SDS011;44557;51.862;19.378;2023-07-16T09:24:21;4.20;;;3.00;;
58784;SDS011;44557;51.862;19.378;2023-07-16T09:26:23;4.60;;;2.90;;
58784;SDS011;44557;51.862;19.378;2023-07-16T09:28:24;4.60;;;2.60;;
58784;SDS011;44557;51.862;19.378;2023-07-16T09:30:30;3.90;;;2.60;;
58784;SDS011;44557;51.862;19.378;2023-07-16T09:32:34;5.60;;;2.90;;
58784;SDS011;44557;51.862;19.378;2023-07-16T09:34:37;4.40;;;2.30;;
58784;SDS011;44557;51.862;19.378;2023-07-16T09:36:39;3.90;;;2.30;;
58784;SDS011;44557;51.862;19.378;2023-07-16T09:38:41;4.90;;;2.20;;
58784;SDS011;44557;51.862;19.378;2023-07-16T09:40:43;3.60;;;2.10;;
58784;SDS011;44557;51.862;19.378;2023-07-16T09:42:45;5.90;;;3.60;;
58784;SDS011;44557;51.862;19.378;2023-07-16T09:44:47;5.00;;;2.80;;
58784;SDS011;44557;51.862;19.378;2023-07-16T09:46:50;4.40;;;3.00;;
58784;SDS011;44557;51.862;19.378;2023-07-16T09:48:51;5.30;;;3.50;;
58784;SDS011;44557;51.862;19.378;2023-07-16T09:50:53;5.10;;;3.10;;
58784;SDS011;44557;51.862;19.378;2023-07-16T09:52:55;4.10;;;2.60;;
58784;SDS011;44557;51.862;19.378;2023-07-16T09:54:59;3.60;;;2.50;;
58784;SDS011;44557;51.862;19.378;2023-07-16T09:57:03;5.90;;;3.80;;
58784;SDS011;44557;51.862;19.378;2023-07-16T09:59:08;5.80;;;3.30;;
58784;SDS011;44557;51.862;19.378;2023-07-16T10:01:17;6.30;;;3.90;;
58784;SDS011;44557;51.862;19.378;2023-07-16T10:03:19;4.60;;;3.00;;
58784;SDS011;44557;51.862;19.378;2023-07-16T10:05:25;4.20;;;2.10;;
58784;SDS011;44557;51.862;19.378;2023-07-16T10:07:28;4.90;;;2.30;;
58784;SDS011;44557;51.862;19.378;2023-07-16T10:09:33;2.80;;;1.80;;
58784;SDS011;44557;51.862;19.378;2023-07-16T10:11:42;2.80;;;1.90;;
58784;SDS011;44557;51.862;19.378;2023-07-16T10:13:48;7.20;;;2.40;;
58784;SDS011;44557;51.862;19.378;2023-07-16T10:15:56;2.90;;;2.30;;
58784;SDS011;44557;51.862;19.378;2023-07-16T10:17:58;4.60;;;2.80;;
58784;SDS011;44557;51.862;19.378;2023-07-16T10:20:06;3.70;;;2.50;;
58784;SDS011;44557;51.862;19.378;2023-07-16T10:22:11;3.40;;;2.10;;
58784;SDS011;44557;51.862;19.378;2023-07-16T10:24:17;3.90;;;2.00;;
58784;SDS011;44557;51.862;19.378;2023-07-16T10:26:26;4.30;;;2.30;;
58784;SDS011;44557;51.862;19.378;2023-07-16T10:28:35;2.60;;;2.20;;
58784;SDS011;44557;51.862;19.378;2023-07-16T10:30:38;2.50;;;2.10;;
58784;SDS011;44557;51.862;19.378;2023-07-16T10:32:40;2.90;;;2.10;;
58784;SDS011;44557;51.862;19.378;2023-07-16T10:34:42;4.40;;;2.20;;
58784;SDS011;44557;51.862;19.378;2023-07-16T10:36:44;3.50;;;2.20;;
58784;SDS011;44557;51.862;19.378;2023-07-16T10:38:45;3.10;;;2.00;;
58784;SDS011;44557;51.862;19.378;2023-07-16T10:40:47;5.40;;;1.80;;
58784;SDS011;44557;51.862;19.378;2023-07-16T10:42:49;4.40;;;2.40;;
58784;SDS011;44557;51.862;19.378;2023-07-16T10:44:51;3.30;;;2.10;;
58784;SDS011;44557;51.862;19.378;2023-07-16T10:46:54;4.20;;;2.10;;
58784;SDS011;44557;51.862;19.378;2023-07-16T10:48:56;5.40;;;3.20;;
58784;SDS011;44557;51.862;19.378;2023-07-16T10:50:58;10.00;;;8.20;;
58784;SDS011;44557;51.862;19.378;2023-07-16T10:53:00;5.80;;;3.70;;
58784;SDS011;44557;51.862;19.378;2023-07-16T10:55:02;5.10;;;3.80;;
58784;SDS011;44557;51.862;19.378;2023-07-16T10:57:06;5.40;;;2.70;;
58784;SDS011;44557;51.862;19.378;2023-07-16T10:59:09;3.20;;;2.10;;
58784;SDS011;44557;51.862;19.378;2023-07-16T11:01:12;5.10;;;2.20;;
58784;SDS011;44557;51.862;19.378;2023-07-16T11:03:16;3.80;;;2.10;;
58784;SDS011;44557;51.862;19.378;2023-07-16T11:05:18;5.70;;;2.30;;
58784;SDS011;44557;51.862;19.378;2023-07-16T11:07:20;5.70;;;3.60;;
58784;SDS011;44557;51.862;19.378;2023-07-16T11:09:23;6.70;;;4.40;;
58784;SDS011;44557;51.862;19.378;2023-07-16T11:11:29;6.80;;;3.60;;
58784;SDS011;44557;51.862;19.378;2023-07-16T11:13:32;3.40;;;2.40;;
58784;SDS011;44557;51.862;19.378;2023-07-16T11:15:33;5.20;;;2.80;;
58784;SDS011;44557;51.862;19.378;2023-07-16T11:17:39;6.40;;;2.80;;
58784;SDS011;44557;51.862;19.378;2023-07-16T11:19:44;4.80;;;3.00;;
58784;SDS011;44557;51.862;19.378;2023-07-16T11:21:47;3.20;;;2.10;;
58784;SDS011;44557;51.862;19.378;2023-07-16T11:23:49;5.90;;;2.50;;
58784;SDS011;44557;51.862;19.378;2023-07-16T11:25:51;4.10;;;2.30;;
58784;SDS011;44557;51.862;19.378;2023-07-16T11:27:56;3.20;;;1.90;;
58784;SDS011;44557;51.862;19.378;2023-07-16T11:29:59;4.20;;;2.70;;
58784;SDS011;44557;51.862;19.378;2023-07-16T11:32:02;3.10;;;2.10;;
58784;SDS011;44557;51.862;19.378;2023-07-16T11:34:04;5.20;;;2.10;;
58784;SDS011;44557;51.862;19.378;2023-07-16T11:36:09;3.30;;;2.20;;
58784;SDS011;44557;51.862;19.378;2023-07-16T11:38:10;4.10;;;2.00;;
58784;SDS011;44557;51.862;19.378;2023-07-16T11:40:16;3.20;;;2.10;;
58784;SDS011;44557;51.862;19.378;2023-07-16T11:42:23;3.40;;;1.90;;
58784;SDS011;44557;51.862;19.378;2023-07-16T11:44:48;3.60;;;1.90;;
58784;SDS011;44557;51.862;19.378;2023-07-16T11:46:50;2.70;;;2.10;;
58784;SDS011;44557;51.862;19.378;2023-07-16T11:48:52;2.70;;;2.00;;
58784;SDS011;44557;51.862;19.378;2023-07-16T11:50:54;2.60;;;1.60;;
58784;SDS011;44557;51.862;19.378;2023-07-16T11:53:00;3.10;;;2.10;;
58784;SDS011;44557;51.862;19.378;2023-07-16T11:55:02;6.60;;;3.60;;
58784;SDS011;44557;51.862;19.378;2023-07-16T11:57:07;5.30;;;2.30;;
58784;SDS011;44557;51.862;19.378;2023-07-16T11:59:09;9.40;;;7.50;;
58784;SDS011;44557;51.862;19.378;2023-07-16T12:01:10;8.70;;;6.00;;
58784;SDS011;44557;51.862;19.378;2023-07-16T12:03:12;6.30;;;4.60;;
58784;SDS011;44557;51.862;19.378;2023-07-16T12:05:14;4.00;;;2.90;;
58784;SDS011;44557;51.862;19.378;2023-07-16T12:07:30;3.30;;;1.80;;
58784;SDS011;44557;51.862;19.378;2023-07-16T12:09:33;3.60;;;2.10;;
58784;SDS011;44557;51.862;19.378;2023-07-16T12:11:35;2.20;;;1.70;;
58784;SDS011;44557;51.862;19.378;2023-07-16T12:13:39;3.00;;;1.90;;